»·PEaware :: LB11 L52-L52

LB11 :: L52-L52

FLIGHT INFORMATION

Flight Status: Arrived
Operator: Unknown
More flights by this operator :: More flights under this callsign
Pilot: Daniel P. (20187)
Aircraft: CESSNA 172 SKYHAWK
(C172)
More flights by this aircraft type
Origin: L52 Oceano Co
United States
Destination: L52 Oceano Co
United States
More flights between these airports :: More routes between these airports
Route:
File this flight plan on PilotEdge
Remarks: Airwork
Altitude:
(Current/Filed)
1,200ft
Speed:
(Current/Filed)
90kts
Departed: 25-Aug-18 04:19 PM
Arrived: 25-Aug-18 05:01 PM
Distance/Time
Traveled:
0nm/0:42
Distance/Time
To Go:
Arrived

Flight Plot

Page will automatically refresh every two minutes.


Map Options




Map Legend


Flown Route
Filed Route
Departure Airport
Arrival Airport
Navaid (VOR, NDB)
Fix

Horizontal Profiles

Position Reports

Time Latitude Longitude Heading Altitude Ground
Speed
25-Aug-18 16:14 35.103381 -120.624460 26 15ft 0kts
25-Aug-18 16:15 35.102924 -120.623734 180 16ft 5kts
25-Aug-18 16:16 35.101508 -120.623140 123 14ft 13kts
25-Aug-18 16:17 35.099580 -120.619595 152 17ft 4kts
25-Aug-18 16:18 35.099508 -120.619553 67 17ft 0kts
25-Aug-18 16:19 35.099702 -120.619197 40 17ft 6kts
25-Aug-18 16:20 35.106279 -120.631764 301 637ft 60kts
25-Aug-18 16:21 35.098720 -120.650006 178 1106ft 93kts
25-Aug-18 16:22 35.075919 -120.633891 147 1391ft 95kts
25-Aug-18 16:23 35.059081 -120.616885 107 1224ft 72kts
25-Aug-18 16:24 35.063910 -120.594295 37 1114ft 68kts
25-Aug-18 16:25 35.080458 -120.582401 347 1081ft 68kts
25-Aug-18 16:26 35.090076 -120.603088 305 723ft 69kts
25-Aug-18 16:27 35.100347 -120.620084 307 19ft 51kts
25-Aug-18 16:28 35.110323 -120.639655 303 596ft 76kts
25-Aug-18 16:29 35.096675 -120.661916 216 813ft 106kts
25-Aug-18 16:30 35.075468 -120.639286 110 901ft 111kts
25-Aug-18 16:31 35.062488 -120.606541 78 812ft 103kts
25-Aug-18 16:32 35.081611 -120.591122 335 838ft 66kts
25-Aug-18 16:33 35.095035 -120.609878 305 346ft 73kts
25-Aug-18 16:34 35.104159 -120.627520 302 171ft 70kts
25-Aug-18 16:35 35.100002 -120.646687 200 839ft 112kts
25-Aug-18 16:36 35.074303 -120.636112 118 886ft 101kts
25-Aug-18 16:37 35.062643 -120.606734 69 786ft 94kts
25-Aug-18 16:38 35.080922 -120.593711 338 729ft 65kts
25-Aug-18 16:39 35.094420 -120.608968 307 320ft 69kts
25-Aug-18 16:40 35.104405 -120.628100 299 270ft 64kts
25-Aug-18 16:41 35.096478 -120.645727 208 867ft 85kts
25-Aug-18 16:42 35.083460 -120.624584 106 961ft 85kts
25-Aug-18 16:43 35.078741 -120.597523 43 913ft 89kts
25-Aug-18 16:44 35.094020 -120.608219 305 373ft 75kts
25-Aug-18 16:45 35.103442 -120.626081 301 168ft 67kts
25-Aug-18 16:46 35.094601 -120.643411 200 835ft 104kts
25-Aug-18 16:47 35.074226 -120.619361 116 794ft 105kts
25-Aug-18 16:48 35.073774 -120.593183 24 740ft 78kts
25-Aug-18 16:49 35.090006 -120.600939 307 469ft 82kts
25-Aug-18 16:50 35.100445 -120.620220 302 17ft 44kts
25-Aug-18 16:51 35.109675 -120.640167 258 803ft 75kts
25-Aug-18 16:52 35.086626 -120.644654 122 955ft 111kts
25-Aug-18 16:53 35.068781 -120.614473 122 919ft 108kts
25-Aug-18 16:54 35.080485 -120.589829 24 872ft 93kts
25-Aug-18 16:55 35.093258 -120.606912 306 409ft 71kts
25-Aug-18 16:56 35.101428 -120.622072 303 17ft 65kts
25-Aug-18 16:57 35.106866 -120.643756 223 828ft 91kts
25-Aug-18 16:58 35.083629 -120.638117 118 804ft 113kts
25-Aug-18 16:59 35.073970 -120.610135 32 723ft 68kts
25-Aug-18 17:00 35.088752 -120.604508 288 488ft 53kts
25-Aug-18 17:01 35.098478 -120.616699 306 114ft 47kts
25-Aug-18 17:02 35.102582 -120.623934 39 15ft 0kts
25-Aug-18 17:03 35.103383 -120.624467 33 15ft 0kts
25-Aug-18 17:04 35.103383 -120.624467 33 15ft 0kts
25-Aug-18 17:05 35.103383 -120.624466 33 15ft 0kts
25-Aug-18 17:06 35.103384 -120.624466 33 15ft 0kts
25-Aug-18 17:07 35.103384 -120.624466 33 15ft 0kts
25-Aug-18 17:08 35.103384 -120.624466 33 15ft 0kts
25-Aug-18 17:09 35.103384 -120.624466 33 15ft 0kts
25-Aug-18 17:10 35.103384 -120.624466 33 15ft 0kts
25-Aug-18 17:11 35.103384 -120.624466 33 15ft 0kts
25-Aug-18 17:12 35.103384 -120.624466 33 15ft 0kts
25-Aug-18 17:13 35.103384 -120.624466 33 15ft 0kts
25-Aug-18 17:14 35.103384 -120.624466 33 15ft 0kts
25-Aug-18 17:15 35.103384 -120.624466 33 15ft 0kts
25-Aug-18 17:16 35.103384 -120.624466 33 15ft 0kts

Navigation Log

Ident Type
Flight plan parsing failed, navigation log unavailable